SBBRYZYX KWBCYMYX SOZZMAMX SYZZMAMX TBPBYMYX TNCCYMYX

TNCAYMYX TFFFYMYX TFFRYMYX TTPPYMYX EGZZMNAM

202200 SMJPYMYX

FTSM20 SMJP 202200

TAF SMJP 202200Z 2100/2124 04005KT 9999 FEW010 SCT030

TX30/2118Z TN23/2110Z PROB30 TEMPO 2109/2110 00000KT
3000 BR SCT001 BECMG 2111/2113 08008KT SCT020

TEMPO 2112/2116 5000 SHRA BKN018
FM212200 05006KT CAVOK=

 

TAF SMZO 202200Z 2100/2124 05004KT CAVOK TX30/2118Z
TN23/2110Z BECMG 2111/2113 08010KT SCT020

PROB30 TEMPO 2114/2118 5000 SHRA BKN015

FM212200 05006KT CAVOK=

 

 

 

 

 

RO

JANUARY 2015